Weather observations for the past three days for
Alabaster, Shelby County Airport
Imperial (Metric)
Date Time (cdt) Wind (mph) Vis. (mi.) Weather Sky Cond. Temperature (ºF) Relative Humidity Wind Chill (°F) Heat Index (°F) Pressure Precipitation (in)
Air Dwpt 6 hour altimeter (in) sea level (mb) 1 hr 3 hr 6 hr
Max. Min.
05 03:53 Calm 0.00 Fair CLR 75 72 90% 74 29.96 1013.6
05 02:53 Calm 0.00 Fair CLR 75.9 72 88% 76 29.95 1013.2
05 01:53 Calm 0.00 Fair CLR 75.9 72 88% 76 29.94 1013.0
05 00:53 Calm 0.00 Fair CLR 77 72 91.9 75.9 85% 78 29.95 1013.4
04 22:53 Calm 0.00 Fair CLR 81 71.1 72% 85 29.96 1013.6
04 21:53 Calm 0.00 Fair CLR 80.1 73.9 82% 85 29.97 1013.8
04 20:53 Calm 0.00 Fair CLR 82 73.9 77% 88 29.96 1013.7
04 19:53 Calm 0.00 Fair CLR 84 72 67% 90 29.95 1013.4
04 18:53 Vrbl 3 0.00 A Few Clouds FEW065 93 69.1 98.1 91.9 46% 98 29.95 1013.3
04 17:53 Vrbl 6 10.00 Fair CLR 96.1 68 40% 101 29.94 1012.8
04 16:53 Vrbl 6 10.00 Fair CLR 97 66.9 37% 101 29.92 1012.3
04 15:53 Vrbl 3 10.00 A Few Clouds FEW100 97 69.1 40% 103 29.93 1012.6
04 14:53 Vrbl 6 10.00 Fair CLR 97 68 39% 102 29.95 1013.3
04 13:53 NE 6 10.00 Fair CLR 96.1 70 43% 103 29.98 1014.4
04 12:53 Vrbl 7 10.00 Partly Cloudy SCT050 95 70 95 77 44% 101 30.01 1015.3
04 11:53 Vrbl 3 10.00 Fair CLR 91.9 71.1 51% 99 30.03 1016.1
04 10:53 Vrbl 5 10.00 Fair CLR 90 71.1 54% 96 30.05 1016.5
04 09:53 Calm 10.00 Fair CLR 87.1 73 63% 95 30.04 1016.3
04 08:53 E 5 10.00 Fair CLR 84 72 67% 90 30.03 1016.2
04 07:53 Calm 10.00 Fair CLR 79 73 82% 82 30.03 1015.9
04 06:53 Calm 8.00 Fair CLR 75.9 72 78.1 75 88% 76 30.01 1015.4
04 05:53 Calm 10.00 Fair CLR 75.9 73 91% 76 30 1014.9
04 04:53 Calm 10.00 Fair CLR 75.9 72 88% 76 29.99 1014.6
04 03:53 Calm 10.00 A Few Clouds FEW065 75.9 72 88% 76 29.99 1014.5
04 02:53 Calm 10.00 Partly Cloudy SCT070 78.1 72 82% 80 29.99 1014.5
04 01:53 Calm 10.00 Fair CLR 77 73 88% 78 29.99 1014.5
04 00:53 Calm 10.00 Fair CLR 77 73.9 89.1 77 90% 78 29.99 1014.6
03 23:53 Calm 10.00 Fair CLR 78.1 75 90% 81 29.99 1014.7
03 22:53 Calm 10.00 Fair CLR 79 75 88% 83 29.99 1014.7
03 21:53 Calm 10.00 Fair CLR 80.1 75 85% 85 30 1014.8
03 20:53 Calm 10.00 Fair CLR 81 75.9 85% 87 29.99 1014.7
03 19:53 Calm 10.00 Fair CLR 82.9 75 77% 90 29.97 1014.1
03 18:53 Vrbl 3 10.00 Partly Cloudy SCT070 87.1 73 99 87.1 63% 95 29.97 1013.9
03 17:53 Calm 10.00 A Few Clouds FEW110 89.1 71.1 55% 95 29.96 1013.6
03 16:53 Calm 10.00 Mostly Cloudy BKN065 93.9 70 46% 100 29.95 1013.1
03 15:53 Vrbl 5 10.00 A Few Clouds FEW065 97 69.1 40% 103 29.95 1013.3
03 14:53 N 5 G 18 8.00 Light Rain FEW065 SCT085 SCT110 91 72 54% 99 29.98 1014.3
03 13:53 Vrbl 5 10.00 Partly Cloudy SCT060 99 70 39% 106 29.99 1014.7
03 12:53 Vrbl 6 10.00 Mostly Cloudy SCT055 BKN075 96.1 70 97 75.9 43% 103 30.02 1015.6
03 11:53 Vrbl 5 10.00 Fair CLR 93.9 71.1 48% 101 30.04 1016.3
03 10:53 E 3 10.00 Fair CLR 91.9 72 52% 100 30.06 1017.0
03 09:53 Calm 10.00 Fair CLR 89.1 73 59% 97 30.06 1016.9
03 08:53 Calm 10.00 Fair CLR 84.9 73 68% 92 30.05 1016.8
03 07:53 Calm 9.00 Fair CLR 80.1 73 79% 84 30.05 1016.7
03 06:53 Calm 8.00 Fair CLR 75.9 72 77 73.9 88% 76 30.05 1016.6
03 05:53 Calm 10.00 Fair CLR 75 73 94% 73 30.03 1016.0
03 04:53 Calm 10.00 Fair CLR 75 73 94% 73 30.03 1015.8
03 03:53 Calm 10.00 A Few Clouds FEW070 75.9 73 91% 76 30.02 1015.7
03 02:53 Calm 10.00 Fair CLR 75.9 73.9 94% 75 30.02 1015.7
03 01:53 Calm 10.00 Fair CLR 77 73.9 90% 78 30.02 1015.8
03 00:53 Calm 10.00 Fair CLR 77 73.9 91 77 90% 78 30.03 1016.0
02 23:53 Calm 10.00 Fair CLR 78.1 73.9 87% 81 30.03 1015.9
02 22:53 Calm 10.00 Fair CLR 79 73.9 85% 83 30.03 1016.1
02 21:53 Calm 10.00 Fair CLR 80.1 73.9 82% 85 30.03 1016.0
02 20:53 Calm 10.00 Fair CLR 81 73.9 79% 86 30.03 1016.0
02 19:53 Calm 10.00 Fair CLR 84 72 67% 90 30 1015.2
02 18:53 Calm 10.00 Fair CLR 91 70 98.1 90 50% 97 30 1015.2
02 17:53 Vrbl 3 10.00 Fair CLR 93.9 69.1 44% 99 30 1014.9
02 16:53 S 6 10.00 A Few Clouds FEW065 93.9 69.1 44% 99 30.01 1015.3
02 15:53 SE 5 10.00 A Few Clouds FEW070 95 68 41% 100 30.01 1015.4
02 14:53 Vrbl 3 10.00 A Few Clouds FEW050 93.9 70 46% 100 30.03 1016.0
02 13:53 Calm 10.00 Mostly Cloudy FEW065 SCT080 BKN100 96.1 69.1 41% 102 30.05 1016.8
02 12:53 Vrbl 7 10.00 A Few Clouds FEW060 96.1 69.1 96.1 73.9 41% 102 30.07 1017.5
02 11:53 Calm 10.00 Fair CLR 93.9 69.1 44% 99 30.1 1018.2
02 10:53 Calm 10.00 Fair CLR 91.9 68 46% 96 30.12 1019.0
02 09:53 Vrbl 3 9.00 Fair CLR 88 73 61% 96 30.12 1018.9
02 08:53 Calm 10.00 Fair CLR 84 73 70% 90 30.11 1019.0
02 07:53 Calm 8.00 Fair CLR 79 72 79% 82 30.11 1018.9
02 06:53 Calm 8.00 Fair CLR 73.9 72 78.1 73 94% 30.1 1018.6
02 05:53 Calm 9.00 Fair CLR 73.9 72 94% 30.09 1017.9
02 04:53 Calm 10.00 Fair CLR 73.9 72 94% 30.08 1017.6
Date Time (cdt) Wind (mph) Vis. (mi.) Weather Sky Cond. Air Dwpt Max. Min. Relative Humidity Wind Chill (°F) Heat Index (°F) altimeter (in) sea level (mb) 1 hr 3 hr 6 hr
6 hour
Temperature (ºF) Pressure Precipitation (in)